createdAt,value
2024-01-06T00:00:12.264Z,100379.59
2024-01-06T00:00:44.032Z,100377.25
2024-01-06T00:01:16.766Z,100374.94
2024-01-06T00:01:48.601Z,100376.47
2024-01-06T00:02:38.388Z,100374.94
2024-01-06T00:03:28.516Z,100377.63
2024-01-06T00:04:00.168Z,100381.47
2024-01-06T00:04:31.904Z,100376.84
2024-01-06T00:05:03.565Z,100383.03
2024-01-06T00:05:35.045Z,100376.06
2024-01-06T00:06:07.013Z,100382.25
2024-01-06T00:06:38.595Z,100374.50
2024-01-06T00:07:10.308Z,100381.81
2024-01-06T00:07:41.832Z,100381.03
2024-01-06T00:08:13.383Z,100376.41
2024-01-06T00:08:44.922Z,100385.63
2024-01-06T00:09:16.570Z,100386.06
2024-01-06T00:09:48.238Z,100386.06
2024-01-06T00:10:19.850Z,100382.59
2024-01-06T00:10:51.449Z,100383.38
2024-01-06T00:11:23.845Z,100380.69
2024-01-06T00:11:55.497Z,100387.22
2024-01-06T00:12:27.099Z,100382.59
2024-01-06T00:12:58.769Z,100388.00
2024-01-06T00:13:30.658Z,100385.28
2024-01-06T00:14:02.195Z,100390.69
2024-01-06T00:14:52.537Z,100394.19
2024-01-06T00:15:24.447Z,100393.41
2024-01-06T00:15:56.103Z,100392.59
2024-01-06T00:16:29.505Z,100393.75
2024-01-06T00:17:01.465Z,100396.44
2024-01-06T00:17:33.084Z,100396.44
2024-01-06T00:18:04.983Z,100400.25
2024-01-06T00:18:36.655Z,100397.56
2024-01-06T00:19:08.605Z,100409.94
2024-01-06T00:19:40.327Z,100408.72
2024-01-06T00:20:12.126Z,100406.34
2024-01-06T00:21:02.287Z,100412.88
2024-01-06T00:22:22.890Z,100409.31
2024-01-06T00:22:54.399Z,100405.03
2024-01-06T00:23:25.848Z,100410.44
2024-01-06T00:23:57.610Z,100414.25
2024-01-06T00:24:29.293Z,100410.00
2024-01-06T00:25:01.032Z,100420.78
2024-01-06T00:25:32.597Z,100416.53
2024-01-06T00:26:05.181Z,100412.25
2024-01-06T00:26:37.087Z,100413.81
2024-01-06T00:27:08.722Z,100415.38
2024-01-06T00:27:40.390Z,100418.09
2024-01-06T00:28:12.030Z,100418.88
2024-01-06T00:28:43.631Z,100425.41
2024-01-06T00:29:15.197Z,100420.34
2024-01-06T00:29:46.709Z,100421.47
2024-01-06T00:30:36.753Z,100422.63
2024-01-06T00:31:08.735Z,100424.53
2024-01-06T00:31:40.374Z,100418.38
2024-01-06T00:32:11.992Z,100418.38
2024-01-06T00:32:43.557Z,100416.78
2024-01-06T00:33:15.207Z,100417.56
2024-01-06T00:33:46.957Z,100417.91
2024-01-06T00:34:18.732Z,100418.72
2024-01-06T00:34:50.359Z,100423.75
2024-01-06T00:35:21.940Z,100415.66
2024-01-06T00:35:53.673Z,100425.34
2024-01-06T00:36:25.257Z,100410.59
2024-01-06T00:36:56.775Z,100421.84
2024-01-06T00:37:28.245Z,100419.50
2024-01-06T00:38:01.720Z,100426.47
2024-01-06T00:38:33.345Z,100421.84
2024-01-06T00:39:04.927Z,100425.69
2024-01-06T00:39:36.397Z,100422.19
2024-01-06T00:40:08.415Z,100421.41
2024-01-06T00:40:58.473Z,100425.22
2024-01-06T00:41:30.029Z,100422.88
2024-01-06T00:42:01.637Z,100426.69
2024-01-06T00:42:33.237Z,100422.44
2024-01-06T00:43:04.863Z,100422.78
2024-01-06T00:43:36.404Z,100423.56
2024-01-06T00:44:07.940Z,100424.69
2024-01-06T00:44:39.430Z,100418.50
2024-01-06T00:45:10.969Z,100421.53
2024-01-06T00:45:42.630Z,100426.16
2024-01-06T00:46:14.301Z,100426.94
2024-01-06T00:46:46.238Z,100422.69
2024-01-06T00:47:17.950Z,100423.81
2024-01-06T00:47:49.507Z,100429.19
2024-01-06T00:48:21.780Z,100426.50
2024-01-06T00:48:53.440Z,100431.13
2024-01-06T00:50:14.065Z,100429.97
2024-01-06T00:50:45.706Z,100429.97
2024-01-06T00:51:17.393Z,100430.78
2024-01-06T00:51:48.939Z,100432.34
2024-01-06T00:52:20.504Z,100429.66
2024-01-06T00:52:53.540Z,100427.72
2024-01-06T00:53:25.113Z,100431.22
2024-01-06T00:53:57.062Z,100430.09
2024-01-06T00:54:28.608Z,100435.50
2024-01-06T00:55:19.289Z,100431.22
2024-01-06T00:55:50.837Z,100435.81
2024-01-06T00:56:22.407Z,100430.78
2024-01-06T00:56:56.659Z,100426.50
2024-01-06T00:57:48.068Z,100429.19
2024-01-06T00:58:19.779Z,100427.28
2024-01-06T00:58:51.277Z,100431.13
2024-01-06T00:59:22.819Z,100426.50
2024-01-06T00:59:54.368Z,100424.94
2024-01-06T01:00:26.623Z,100438.44
2024-01-06T01:00:58.479Z,100430.31
2024-01-06T01:01:30.146Z,100434.50
2024-01-06T01:02:01.875Z,100437.97
2024-01-06T01:02:33.947Z,100429.44
2024-01-06T01:03:05.649Z,100434.09
2024-01-06T01:03:37.224Z,100437.91
2024-01-06T01:04:08.956Z,100440.94
2024-01-06T01:04:40.700Z,100437.47
2024-01-06T01:05:12.362Z,100435.88
2024-01-06T01:05:44.058Z,100438.59
2024-01-06T01:06:15.681Z,100439.72
2024-01-06T01:06:47.263Z,100442.41
2024-01-06T01:07:18.828Z,100436.22
2024-01-06T01:07:50.446Z,100436.22
2024-01-06T01:08:22.045Z,100444.31
2024-01-06T01:08:54.224Z,100442.75
2024-01-06T01:09:25.812Z,100440.06
2024-01-06T01:09:57.839Z,100447.03
2024-01-06T01:10:29.551Z,100447.81
2024-01-06T01:11:01.281Z,100450.50
2024-01-06T01:11:32.779Z,100447.03
2024-01-06T01:12:04.508Z,100450.84
2024-01-06T01:12:36.054Z,100445.44
2024-01-06T01:13:07.621Z,100444.66
2024-01-06T01:13:39.208Z,100448.94
2024-01-06T01:14:11.030Z,100452.75
2024-01-06T01:14:42.822Z,100455.13
2024-01-06T01:16:04.166Z,100451.19
2024-01-06T01:16:35.735Z,100459.97
2024-01-06T01:17:07.316Z,100455.34
2024-01-06T01:17:38.864Z,100456.81
2024-01-06T01:18:10.703Z,100462.56
2024-01-06T01:18:42.452Z,100463.69
2024-01-06T01:19:14.148Z,100461.44
2024-01-06T01:19:46.497Z,100461.78
2024-01-06T01:20:18.143Z,100461.78
2024-01-06T01:20:49.628Z,100466.03
2024-01-06T01:21:21.410Z,100467.16
2024-01-06T01:21:56.633Z,100467.50
2024-01-06T01:22:28.225Z,100472.91
2024-01-06T01:22:59.733Z,100473.69
2024-01-06T01:23:31.308Z,100469.09
2024-01-06T01:24:03.734Z,100471.44
2024-01-06T01:24:35.544Z,100470.66
2024-01-06T01:25:08.825Z,100481.09
2024-01-06T01:25:40.485Z,100480.66
2024-01-06T01:26:12.171Z,100470.66
2024-01-06T01:26:43.763Z,100477.19
2024-01-06T01:27:15.396Z,100478.31
2024-01-06T01:27:47.068Z,100474.75
2024-01-06T01:28:18.628Z,100478.56
2024-01-06T01:28:50.125Z,100479.34
2024-01-06T01:29:21.750Z,100478.13
2024-01-06T01:29:54.045Z,100482.38
2024-01-06T01:30:25.865Z,100479.25
2024-01-06T01:30:57.637Z,100481.16
2024-01-06T01:31:29.423Z,100478.78
2024-01-06T01:32:01.266Z,100483.06
2024-01-06T01:33:22.050Z,100485.31
2024-01-06T01:33:53.835Z,100482.94
2024-01-06T01:34:25.604Z,100484.88
2024-01-06T01:34:57.382Z,100492.16
2024-01-06T01:35:29.113Z,100481.72
2024-01-06T01:36:02.655Z,100480.16
2024-01-06T01:36:34.949Z,100490.16
2024-01-06T01:37:06.747Z,100490.47
2024-01-06T01:38:27.113Z,100491.59
2024-01-06T01:38:58.983Z,100494.31
2024-01-06T01:40:19.739Z,100494.66
2024-01-06T01:40:51.459Z,100495.81
2024-01-06T01:41:22.996Z,100493.44
2024-01-06T01:41:54.686Z,100500.75
2024-01-06T01:42:26.477Z,100504.22
2024-01-06T01:42:58.066Z,100502.66
2024-01-06T01:43:30.260Z,100505.34
2024-01-06T01:44:01.929Z,100506.47
2024-01-06T01:44:33.619Z,100508.38
2024-01-06T01:45:24.638Z,100503.78
2024-01-06T01:45:57.208Z,100509.16
2024-01-06T01:46:48.933Z,100509.16
2024-01-06T01:47:22.642Z,100505.34
2024-01-06T01:47:54.287Z,100506.13
2024-01-06T01:48:26.584Z,100513.44
2024-01-06T01:49:00.738Z,100518.06
2024-01-06T01:50:23.450Z,100518.38
2024-01-06T01:50:55.607Z,100512.22
2024-01-06T01:51:35.835Z,100515.25
2024-01-06T01:52:07.564Z,100516.03
2024-01-06T01:52:40.846Z,100518.72
2024-01-06T01:53:13.499Z,100521.41
2024-01-06T01:53:45.517Z,100521.41
2024-01-06T01:54:17.344Z,100522.22
2024-01-06T01:54:49.324Z,100521.41
2024-01-06T01:55:21.163Z,100519.84
2024-01-06T01:55:54.015Z,100525.25
2024-01-06T01:56:26.822Z,100524.44
2024-01-06T01:56:58.476Z,100520.97
2024-01-06T01:57:30.101Z,100522.88
2024-01-06T01:58:20.296Z,100524.44
2024-01-06T01:58:52.289Z,100511.75
2024-01-06T01:59:24.125Z,100523.34
2024-01-06T01:59:56.503Z,100520.28
2024-01-06T02:00:48.276Z,100521.88
2024-01-06T02:01:20.613Z,100519.97
2024-01-06T02:01:52.585Z,100521.53
2024-01-06T02:02:24.314Z,100523.09
2024-01-06T02:02:56.171Z,100523.91
2024-01-06T02:03:31.196Z,100524.69
2024-01-06T02:04:02.932Z,100530.50
2024-01-06T02:04:34.439Z,100525.88
2024-01-06T02:05:06.161Z,100525.56
2024-01-06T02:05:37.850Z,100524.75
2024-01-06T02:06:09.373Z,100528.69
2024-01-06T02:06:41.057Z,100528.69
2024-01-06T02:07:12.644Z,100529.50
2024-01-06T02:07:44.410Z,100533.31
2024-01-06T02:08:15.927Z,100525.56
2024-01-06T02:08:47.560Z,100532.53
2024-01-06T02:09:19.209Z,100529.03
2024-01-06T02:09:50.891Z,100527.47
2024-01-06T02:10:22.809Z,100529.81
2024-01-06T02:10:57.557Z,100532.53
2024-01-06T02:11:29.042Z,100533.66
2024-01-06T02:12:00.534Z,100536.34
2024-01-06T02:12:32.033Z,100536.34
2024-01-06T02:13:11.437Z,100524.44
2024-01-06T02:13:42.926Z,100540.28
2024-01-06T02:14:14.405Z,100540.28
2024-01-06T02:14:45.900Z,100539.16
2024-01-06T02:15:17.414Z,100540.28
2024-01-06T02:15:48.977Z,100541.06
2024-01-06T02:16:20.548Z,100538.38
2024-01-06T02:16:52.026Z,100543.31
2024-01-06T02:17:23.564Z,100539.03
2024-01-06T02:17:55.195Z,100537.13
2024-01-06T02:18:26.944Z,100540.16
2024-01-06T02:18:59.656Z,100545.56
2024-01-06T02:19:31.522Z,100539.38
2024-01-06T02:20:03.550Z,100543.97
2024-01-06T02:20:35.663Z,100544.78
2024-01-06T02:21:07.821Z,100538.25
2024-01-06T02:21:43.195Z,100544.44
2024-01-06T02:22:14.769Z,100547.13
2024-01-06T02:22:47.255Z,100548.69
2024-01-06T02:23:18.677Z,100546.00
2024-01-06T02:23:50.132Z,100548.69
2024-01-06T02:24:22.221Z,100551.41
2024-01-06T02:25:13.921Z,100542.84
2024-01-06T02:26:04.048Z,100550.16
2024-01-06T02:26:35.741Z,100544.78
2024-01-06T02:27:07.262Z,100544.44
2024-01-06T02:27:41.036Z,100552.84
2024-01-06T02:28:12.655Z,100544.34
2024-01-06T02:28:49.057Z,100548.59
2024-01-06T02:29:20.709Z,100549.75
2024-01-06T02:29:52.224Z,100551.28
2024-01-06T02:30:23.875Z,100548.94
2024-01-06T02:31:14.932Z,100547.03
2024-01-06T02:31:46.652Z,100547.03
2024-01-06T02:32:18.251Z,100547.81
2024-01-06T02:33:39.749Z,100547.81
2024-01-06T02:34:11.650Z,100551.66
2024-01-06T02:34:43.409Z,100557.03
2024-01-06T02:35:15.157Z,100551.66
2024-01-06T02:35:47.541Z,100558.16
2024-01-06T02:36:19.191Z,100553.56
2024-01-06T02:36:50.663Z,100549.28
2024-01-06T02:37:22.106Z,100555.47
2024-01-06T02:37:53.629Z,100556.59
2024-01-06T02:39:14.530Z,100556.59
2024-01-06T02:39:46.319Z,100558.16
2024-01-06T02:41:06.833Z,100566.69
2024-01-06T02:41:38.423Z,100565.13
2024-01-06T02:42:10.070Z,100572.44
2024-01-06T02:42:42.313Z,100569.75
2024-01-06T02:43:13.874Z,100566.59
2024-01-06T02:43:45.362Z,100568.97
2024-01-06T02:44:16.890Z,100568.97
2024-01-06T02:44:48.397Z,100570.88
2024-01-06T02:45:19.905Z,100572.78
2024-01-06T02:45:51.510Z,100577.06
2024-01-06T02:46:23.208Z,100573.22
2024-01-06T02:47:12.974Z,100576.25
2024-01-06T02:47:44.645Z,100574.03
2024-01-06T02:48:17.225Z,100574.03
2024-01-06T02:48:49.101Z,100579.03
2024-01-06T02:49:20.901Z,100580.16
2024-01-06T02:49:52.582Z,100575.22
2024-01-06T02:50:24.232Z,100579.50
2024-01-06T02:50:55.711Z,100571.75
2024-01-06T02:51:27.202Z,100575.22
2024-01-06T02:51:58.731Z,100583.31
2024-01-06T02:52:30.355Z,100581.41
2024-01-06T02:53:01.825Z,100582.53
2024-01-06T02:53:33.315Z,100582.88
2024-01-06T02:54:05.584Z,100579.41
2024-01-06T02:54:37.266Z,100581.31
2024-01-06T02:55:08.900Z,100580.53
2024-01-06T02:55:40.844Z,100580.53
2024-01-06T02:56:13.204Z,100579.75
2024-01-06T02:56:44.853Z,100584.00
2024-01-06T02:57:16.468Z,100579.41
2024-01-06T02:57:48.215Z,100580.16
2024-01-06T02:58:19.878Z,100584.44
2024-01-06T02:58:51.376Z,100580.16
2024-01-06T02:59:22.876Z,100574.03
2024-01-06T02:59:54.690Z,100579.41
2024-01-06T03:00:26.600Z,100580.53
2024-01-06T03:00:58.480Z,100582.88
2024-01-06T03:01:30.143Z,100584.81
2024-01-06T03:02:03.155Z,100580.53
2024-01-06T03:02:36.923Z,100581.66
2024-01-06T03:03:08.592Z,100581.66
2024-01-06T03:03:40.218Z,100583.22
2024-01-06T03:04:11.910Z,100582.44
2024-01-06T03:04:43.544Z,100578.63
2024-01-06T03:05:15.223Z,100582.44
2024-01-06T03:05:50.314Z,100587.38
2024-01-06T03:07:11.493Z,100591.53
2024-01-06T03:07:43.077Z,100582.31
2024-01-06T03:08:14.663Z,100582.66
2024-01-06T03:08:46.212Z,100588.38
2024-01-06T03:09:18.350Z,100591.09
2024-01-06T03:09:50.045Z,100591.75
2024-01-06T03:10:21.680Z,100592.53
2024-01-06T03:10:53.389Z,100588.28
2024-01-06T03:11:25.013Z,100591.75
2024-01-06T03:11:57.130Z,100585.13
2024-01-06T03:12:28.671Z,100590.19
2024-01-06T03:13:00.367Z,100596.38
2024-01-06T03:13:31.987Z,100599.06
2024-01-06T03:14:22.028Z,100592.88
2024-01-06T03:14:54.132Z,100592.41
2024-01-06T03:15:25.750Z,100595.44
2024-01-06T03:15:57.376Z,100595.38
2024-01-06T03:16:28.867Z,100594.56
2024-01-06T03:17:00.437Z,100591.88
2024-01-06T03:17:32.072Z,100597.59
2024-01-06T03:18:22.433Z,100596.50
2024-01-06T03:18:54.143Z,100596.81
2024-01-06T03:19:28.430Z,100599.19
2024-01-06T03:20:00.116Z,100605.69
2024-01-06T03:20:31.802Z,100605.38
2024-01-06T03:21:03.413Z,100600.75
2024-01-06T03:21:34.844Z,100609.19
2024-01-06T03:22:06.344Z,100614.56
2024-01-06T03:22:39.157Z,100609.97
2024-01-06T03:23:10.768Z,100612.66
2024-01-06T03:23:42.291Z,100617.28
2024-01-06T03:24:13.935Z,100613.44
2024-01-06T03:24:45.553Z,100614.25
2024-01-06T03:25:17.151Z,100616.56
2024-01-06T03:26:56.439Z,100616.16
2024-01-06T03:27:28.077Z,100611.09
2024-01-06T03:27:59.597Z,100618.72
2024-01-06T03:28:31.178Z,100612.53
2024-01-06T03:29:03.811Z,100620.63
2024-01-06T03:29:35.417Z,100623.78
2024-01-06T03:30:07.622Z,100619.50
2024-01-06T03:30:39.304Z,100624.91
2024-01-06T03:31:11.646Z,100623.78
2024-01-06T03:31:46.734Z,100624.91
2024-01-06T03:32:18.257Z,100616.34
2024-01-06T03:32:49.848Z,100620.63
2024-01-06T03:33:21.450Z,100619.84
2024-01-06T03:33:54.945Z,100620.63
2024-01-06T03:34:26.738Z,100626.03
2024-01-06T03:34:58.339Z,100632.53
2024-01-06T03:35:29.839Z,100621.75
2024-01-06T03:36:06.705Z,100632.53
2024-01-06T03:36:41.840Z,100627.13
2024-01-06T03:37:13.445Z,100637.94
2024-01-06T03:37:44.908Z,100632.53
2024-01-06T03:38:16.417Z,100630.28
2024-01-06T03:39:06.886Z,100637.25
2024-01-06T03:39:38.456Z,100633.44
2024-01-06T03:40:10.470Z,100638.06
2024-01-06T03:40:42.002Z,100641.19
2024-01-06T03:41:13.649Z,100639.63
2024-01-06T03:41:45.165Z,100643.09
2024-01-06T03:42:16.800Z,100645.81
2024-01-06T03:42:49.122Z,100644.22
2024-01-06T03:43:20.771Z,100652.75
2024-01-06T03:43:52.336Z,100645.03
2024-01-06T03:44:42.146Z,100645.81
2024-01-06T03:45:13.896Z,100655.00
2024-01-06T03:45:45.567Z,100649.63
2024-01-06T03:46:17.144Z,100653.91
2024-01-06T03:46:48.654Z,100655.44
2024-01-06T03:47:20.349Z,100653.91
2024-01-06T03:47:52.023Z,100653.09
2024-01-06T03:48:23.891Z,100654.22
2024-01-06T03:48:55.759Z,100652.75
2024-01-06T03:49:27.636Z,100657.38
2024-01-06T03:49:59.283Z,100656.22
2024-01-06T03:50:30.784Z,100657.72
2024-01-06T03:51:04.693Z,100655.81
2024-01-06T03:51:36.295Z,100663.91
2024-01-06T03:52:07.908Z,100658.03
2024-01-06T03:52:39.536Z,100660.28
2024-01-06T03:53:11.142Z,100652.19
2024-01-06T03:53:42.943Z,100660.28
2024-01-06T03:54:14.518Z,100661.06
2024-01-06T03:54:46.018Z,100662.19
2024-01-06T03:55:17.692Z,100659.81
2024-01-06T03:55:49.206Z,100669.81
2024-01-06T03:56:20.748Z,100656.69
2024-01-06T03:56:52.347Z,100659.81
2024-01-06T03:57:23.882Z,100661.75
2024-01-06T03:57:55.366Z,100664.44
2024-01-06T03:58:26.875Z,100660.63
2024-01-06T03:58:58.501Z,100664.88
2024-01-06T03:59:29.997Z,100669.50
2024-01-06T04:00:01.456Z,100667.59
2024-01-06T04:00:33.086Z,100664.09
2024-01-06T04:01:04.873Z,100665.56
2024-01-06T04:01:37.186Z,100673.97
2024-01-06T04:02:08.809Z,100671.94
2024-01-06T04:02:40.281Z,100671.94
2024-01-06T04:03:11.752Z,100673.06
2024-01-06T04:03:43.384Z,100672.25
2024-01-06T04:04:15.106Z,100676.88
2024-01-06T04:04:46.652Z,100676.53
2024-01-06T04:05:18.395Z,100669.25
2024-01-06T04:05:50.182Z,100677.66
2024-01-06T04:07:11.050Z,100678.00
2024-01-06T04:07:42.676Z,100675.28
2024-01-06T04:08:14.149Z,100679.09
2024-01-06T04:08:45.606Z,100686.78
2024-01-06T04:09:19.006Z,100682.50
2024-01-06T04:09:50.820Z,100684.72
2024-01-06T04:10:22.382Z,100685.41
2024-01-06T04:10:53.922Z,100681.13
2024-01-06T04:11:26.271Z,100681.91
2024-01-06T04:11:57.708Z,100687.31
2024-01-06T04:12:29.274Z,100685.06
2024-01-06T04:13:00.823Z,100688.22
2024-01-06T04:13:32.293Z,100682.03
2024-01-06T04:14:03.684Z,100687.09
2024-01-06T04:14:35.144Z,100690.91
2024-01-06T04:15:06.855Z,100685.53
2024-01-06T04:15:38.937Z,100686.63
2024-01-06T04:16:10.486Z,100685.06
2024-01-06T04:16:42.046Z,100684.28
2024-01-06T04:17:13.540Z,100674.94
2024-01-06T04:17:47.671Z,100683.03
2024-01-06T04:18:19.376Z,100687.31
2024-01-06T04:18:51.074Z,100680.34
2024-01-06T04:19:22.712Z,100681.44
2024-01-06T04:19:54.433Z,100683.34
2024-01-06T04:20:25.952Z,100681.44
2024-01-06T04:20:57.437Z,100682.56
2024-01-06T04:21:28.955Z,100680.66
2024-01-06T04:22:19.463Z,100681.44
2024-01-06T04:22:50.936Z,100682.25
2024-01-06T04:23:25.234Z,100677.63
2024-01-06T04:23:57.717Z,100683.81
2024-01-06T04:24:29.581Z,100688.41
2024-01-06T04:25:01.147Z,100685.72
2024-01-06T04:25:32.591Z,100677.19
2024-01-06T04:26:05.910Z,100683.34
2024-01-06T04:26:37.344Z,100687.97
2024-01-06T04:27:09.355Z,100679.88
2024-01-06T04:27:41.160Z,100674.16
2024-01-06T04:28:12.748Z,100680.34
2024-01-06T04:28:44.297Z,100684.94
2024-01-06T04:29:15.888Z,100686.84
2024-01-06T04:29:47.451Z,100684.16
2024-01-06T04:30:37.962Z,100684.94
2024-01-06T04:31:12.031Z,100686.84
2024-01-06T04:31:44.067Z,100684.47
2024-01-06T04:32:15.636Z,100686.38
2024-01-06T04:32:49.591Z,100695.59
2024-01-06T04:33:39.823Z,100687.16
2024-01-06T04:34:11.763Z,100685.25
2024-01-06T04:34:43.439Z,100682.56
2024-01-06T04:35:15.468Z,100691.78
2024-01-06T04:35:47.018Z,100688.28
2024-01-06T04:36:18.479Z,100686.38
2024-01-06T04:36:51.178Z,100688.63
2024-01-06T04:37:22.719Z,100695.13
2024-01-06T04:37:54.281Z,100689.59
2024-01-06T04:38:25.785Z,100689.94
2024-01-06T04:38:57.387Z,100693.78
2024-01-06T04:39:28.899Z,100694.56
2024-01-06T04:40:00.629Z,100693.78
2024-01-06T04:40:32.105Z,100704.19
2024-01-06T04:41:03.810Z,100701.50
2024-01-06T04:41:35.320Z,100698.47
2024-01-06T04:42:07.076Z,100699.59
2024-01-06T04:42:38.610Z,100704.19
2024-01-06T04:43:10.114Z,100712.28
2024-01-06T04:43:41.490Z,100708.38
2024-01-06T04:44:12.969Z,100707.91
2024-01-06T04:44:44.578Z,100703.16
2024-01-06T04:45:16.102Z,100705.88
2024-01-06T04:45:47.615Z,100705.88
2024-01-06T04:46:19.119Z,100698.91
2024-01-06T04:46:50.585Z,100705.41
2024-01-06T04:47:22.129Z,100700.47
2024-01-06T04:48:44.874Z,100703.50
2024-01-06T04:49:34.957Z,100703.81
2024-01-06T04:50:06.910Z,100704.16
2024-01-06T04:50:38.364Z,100709.88
2024-01-06T04:51:11.332Z,100707.19
2024-01-06T04:51:42.960Z,100704.47
2024-01-06T04:52:14.504Z,100706.38
2024-01-06T04:52:46.084Z,100707.19
2024-01-06T04:53:17.488Z,100713.69
2024-01-06T04:53:48.943Z,100709.72
2024-01-06T04:54:20.446Z,100705.47
2024-01-06T04:54:52.050Z,100713.88
2024-01-06T04:55:23.653Z,100713.13
2024-01-06T04:55:55.110Z,100714.66
2024-01-06T04:56:26.594Z,100713.88
2024-01-06T04:56:59.649Z,100715.03
2024-01-06T04:57:31.161Z,100721.53
2024-01-06T04:58:02.778Z,100713.44
2024-01-06T04:58:35.777Z,100714.56
2024-01-06T04:59:07.696Z,100717.56
2024-01-06T04:59:39.166Z,100709.97
2024-01-06T05:00:11.827Z,100716.13
2024-01-06T05:00:43.580Z,100718.03
2024-01-06T05:01:15.461Z,100714.56
2024-01-06T05:01:47.072Z,100711.88
2024-01-06T05:02:18.574Z,100718.84
2024-01-06T05:02:50.013Z,100726.91
2024-01-06T05:03:21.563Z,100725.78
2024-01-06T05:03:53.096Z,100717.72
2024-01-06T05:04:24.655Z,100729.59
2024-01-06T05:04:56.376Z,100719.47
2024-01-06T05:05:27.986Z,100728.34
2024-01-06T05:05:59.413Z,100723.28
2024-01-06T05:06:31.254Z,100724.88
2024-01-06T05:07:03.009Z,100725.66
2024-01-06T05:07:34.476Z,100727.25
2024-01-06T05:08:06.275Z,100719.81
2024-01-06T05:08:42.644Z,100728.22
2024-01-06T05:09:14.140Z,100722.03
2024-01-06T05:09:45.732Z,100732.81
2024-01-06T05:10:17.459Z,100721.25
2024-01-06T05:10:53.685Z,100723.94
2024-01-06T05:11:25.175Z,100726.63
2024-01-06T05:11:56.697Z,100728.22
2024-01-06T05:12:28.203Z,100724.41
2024-01-06T05:12:59.706Z,100732.50
2024-01-06T05:13:31.208Z,100730.91
2024-01-06T05:14:02.740Z,100732.50
2024-01-06T05:14:34.227Z,100727.09
2024-01-06T05:15:06.338Z,100727.44
2024-01-06T05:15:37.859Z,100734.72
2024-01-06T05:16:10.000Z,100736.28
2024-01-06T05:16:41.523Z,100734.41
2024-01-06T05:17:12.964Z,100735.50
2024-01-06T05:17:44.439Z,100740.56
2024-01-06T05:18:16.060Z,100734.41
2024-01-06T05:18:47.759Z,100740.56
2024-01-06T05:19:21.775Z,100739.78
2024-01-06T05:19:53.431Z,100742.94
2024-01-06T05:20:24.945Z,100742.16
2024-01-06T05:20:56.655Z,100742.16
2024-01-06T05:21:28.185Z,100742.16
2024-01-06T05:21:59.735Z,100742.16
2024-01-06T05:22:31.267Z,100747.06
2024-01-06T05:23:02.821Z,100743.25
2024-01-06T05:23:34.350Z,100745.97
2024-01-06T05:24:06.111Z,100745.16
2024-01-06T05:24:37.962Z,100748.66
2024-01-06T05:25:10.308Z,100750.88
2024-01-06T05:25:41.771Z,100745.50
2024-01-06T05:26:14.788Z,100748.97
2024-01-06T05:26:46.276Z,100745.97
2024-01-06T05:27:17.821Z,100752.13
2024-01-06T05:27:49.361Z,100751.34
2024-01-06T05:29:10.123Z,100756.41
2024-01-06T05:29:41.613Z,100752.91
2024-01-06T05:30:13.255Z,100757.53
2024-01-06T05:30:44.887Z,100762.91
2024-01-06T05:31:16.566Z,100755.16
2024-01-06T05:31:50.094Z,100759.44
2024-01-06T05:32:21.715Z,100756.72
2024-01-06T05:32:53.277Z,100757.06
2024-01-06T05:33:24.813Z,100752.78
2024-01-06T05:33:56.413Z,100753.91
2024-01-06T05:34:28.526Z,100757.72
2024-01-06T05:35:00.349Z,100760.41
2024-01-06T05:35:32.042Z,100755.34
2024-01-06T05:36:04.880Z,100758.03
2024-01-06T05:36:36.405Z,100764.53
2024-01-06T05:37:07.869Z,100764.06
2024-01-06T05:37:39.373Z,100758.22
2024-01-06T05:38:10.817Z,100758.22
2024-01-06T05:38:42.272Z,100762.50
2024-01-06T05:39:13.873Z,100761.69
2024-01-06T05:39:45.400Z,100760.59
2024-01-06T05:40:16.900Z,100752.50
2024-01-06T05:40:48.377Z,100759.47
2024-01-06T05:41:20.079Z,100764.06
2024-01-06T05:42:12.614Z,100761.84
2024-01-06T05:42:44.107Z,100765.66
2024-01-06T05:43:15.616Z,100768.00
2024-01-06T05:44:24.603Z,100764.84
2024-01-06T05:44:56.216Z,100762.81
2024-01-06T05:45:30.889Z,100772.47
2024-01-06T05:46:03.008Z,100767.09
2024-01-06T05:46:36.225Z,100762.50
2024-01-06T05:47:09.364Z,100764.38
2024-01-06T05:47:41.156Z,100765.97
2024-01-06T05:48:13.028Z,100764.06
2024-01-06T05:48:44.827Z,100760.25
2024-01-06T05:49:16.524Z,100770.72
2024-01-06T05:49:48.105Z,100769.91
2024-01-06T05:50:19.839Z,100767.69
2024-01-06T05:50:51.362Z,100771.50
2024-01-06T05:51:23.249Z,100770.72
2024-01-06T05:51:54.848Z,100777.22
2024-01-06T05:52:26.389Z,100776.75
2024-01-06T05:52:58.037Z,100780.56
2024-01-06T05:53:29.483Z,100775.16
2024-01-06T05:54:00.955Z,100780.88
2024-01-06T05:54:32.486Z,100779.31
2024-01-06T05:55:04.887Z,100774.25
2024-01-06T05:55:36.422Z,100776.50
2024-01-06T05:56:08.502Z,100786.81
2024-01-06T05:57:28.696Z,100775.25
2024-01-06T05:58:00.485Z,100785.22
2024-01-06T05:58:32.041Z,100775.56
2024-01-06T05:59:04.089Z,100781.28
2024-01-06T05:59:35.839Z,100787.75
2024-01-06T06:00:11.218Z,100782.72
2024-01-06T06:00:42.789Z,100785.41
2024-01-06T06:01:14.426Z,100784.59
2024-01-06T06:01:46.088Z,100785.72
2024-01-06T06:02:17.682Z,100781.44
2024-01-06T06:02:49.244Z,100781.44
2024-01-06T06:03:20.727Z,100785.25
2024-01-06T06:03:52.637Z,100785.56
2024-01-06T06:04:24.446Z,100790.97
2024-01-06T06:04:56.134Z,100784.78
2024-01-06T06:05:27.814Z,100797.94
2024-01-06T06:05:59.358Z,100792.53
2024-01-06T06:06:31.302Z,100792.22
2024-01-06T06:07:03.492Z,100789.53
2024-01-06T06:07:39.855Z,100800.28
2024-01-06T06:08:29.860Z,100796.50
2024-01-06T06:09:01.605Z,100791.09
2024-01-06T06:09:51.806Z,100796.50
2024-01-06T06:10:23.338Z,100792.38
2024-01-06T06:11:06.181Z,100805.81
2024-01-06T06:11:37.786Z,100803.94
2024-01-06T06:12:09.353Z,100801.22
2024-01-06T06:12:40.935Z,100806.16
2024-01-06T06:13:12.687Z,100803.00
2024-01-06T06:13:44.704Z,100802.53
2024-01-06T06:14:16.156Z,100808.22
2024-01-06T06:14:47.708Z,100808.59
2024-01-06T06:15:19.248Z,100807.00
2024-01-06T06:15:50.901Z,100805.41
2024-01-06T06:16:22.629Z,100811.91
2024-01-06T06:16:54.090Z,100805.75
2024-01-06T06:17:26.775Z,100814.13
2024-01-06T06:18:00.787Z,100809.53
2024-01-06T06:18:32.614Z,100812.25
2024-01-06T06:19:04.819Z,100816.84
2024-01-06T06:19:36.544Z,100814.47
2024-01-06T06:20:08.443Z,100823.31
2024-01-06T06:20:39.954Z,100819.84
2024-01-06T06:21:11.525Z,100811.31
2024-01-06T06:21:43.103Z,100823.19
2024-01-06T06:22:14.770Z,100822.38
2024-01-06T06:22:46.173Z,100814.31
2024-01-06T06:23:17.629Z,100818.13
2024-01-06T06:23:49.152Z,100817.00
2024-01-06T06:24:20.659Z,100821.28
2024-01-06T06:24:52.984Z,100818.91
2024-01-06T06:25:24.544Z,100816.53
2024-01-06T06:25:55.964Z,100823.50
2024-01-06T06:26:29.473Z,100828.88